sensor_id;sensor_type;location;lat;lon;timestamp;P1;durP1;ratioP1;P2;durP2;ratioP2
54557;SDS011;40452;50.080;20.040;2023-05-29T02:30:45;5.47;;;1.60;;
54557;SDS011;40452;50.080;20.040;2023-05-29T02:33:10;4.18;;;1.65;;
54557;SDS011;40452;50.080;20.040;2023-05-29T02:35:36;4.10;;;1.70;;
54557;SDS011;40452;50.080;20.040;2023-05-29T02:38:02;3.17;;;1.70;;
54557;SDS011;40452;50.080;20.040;2023-05-29T02:40:27;3.25;;;1.60;;
54557;SDS011;40452;50.080;20.040;2023-05-29T02:42:53;3.00;;;1.60;;
54557;SDS011;40452;50.080;20.040;2023-05-29T02:45:19;3.08;;;1.75;;
54557;SDS011;40452;50.080;20.040;2023-05-29T02:47:44;5.53;;;1.90;;
54557;SDS011;40452;50.080;20.040;2023-05-29T02:50:10;4.20;;;1.67;;
54557;SDS011;40452;50.080;20.040;2023-05-29T02:52:36;3.00;;;1.60;;
54557;SDS011;40452;50.080;20.040;2023-05-29T02:55:02;3.03;;;1.60;;
54557;SDS011;40452;50.080;20.040;2023-05-29T02:57:29;4.85;;;1.63;;
54557;SDS011;40452;50.080;20.040;2023-05-29T02:59:54;3.50;;;1.75;;
54557;SDS011;40452;50.080;20.040;2023-05-29T03:02:20;8.82;;;1.92;;
54557;SDS011;40452;50.080;20.040;2023-05-29T03:04:46;6.20;;;1.88;;
54557;SDS011;40452;50.080;20.040;2023-05-29T03:07:15;4.10;;;1.73;;
54557;SDS011;40452;50.080;20.040;2023-05-29T03:09:40;7.00;;;1.88;;
54557;SDS011;40452;50.080;20.040;2023-05-29T03:12:06;9.45;;;2.40;;
54557;SDS011;40452;50.080;20.040;2023-05-29T03:14:32;2.65;;;1.70;;
54557;SDS011;40452;50.080;20.040;2023-05-29T03:17:01;5.10;;;1.63;;
54557;SDS011;40452;50.080;20.040;2023-05-29T03:19:28;2.65;;;1.65;;
54557;SDS011;40452;50.080;20.040;2023-05-29T03:21:54;3.97;;;2.03;;
54557;SDS011;40452;50.080;20.040;2023-05-29T03:24:20;4.60;;;2.03;;
54557;SDS011;40452;50.080;20.040;2023-05-29T03:26:46;6.55;;;1.83;;
54557;SDS011;40452;50.080;20.040;2023-05-29T03:29:11;6.85;;;1.83;;
54557;SDS011;40452;50.080;20.040;2023-05-29T03:31:37;6.13;;;1.70;;
54557;SDS011;40452;50.080;20.040;2023-05-29T03:34:03;3.35;;;1.67;;
54557;SDS011;40452;50.080;20.040;2023-05-29T03:36:28;26.13;;;2.00;;
54557;SDS011;40452;50.080;20.040;2023-05-29T03:38:54;6.50;;;1.83;;
54557;SDS011;40452;50.080;20.040;2023-05-29T03:41:20;4.78;;;1.83;;
54557;SDS011;40452;50.080;20.040;2023-05-29T03:43:45;6.28;;;1.70;;
54557;SDS011;40452;50.080;20.040;2023-05-29T03:46:11;8.07;;;1.90;;
54557;SDS011;40452;50.080;20.040;2023-05-29T03:48:37;4.90;;;1.80;;
54557;SDS011;40452;50.080;20.040;2023-05-29T03:51:06;7.50;;;1.95;;
54557;SDS011;40452;50.080;20.040;2023-05-29T03:53:34;14.25;;;2.10;;
54557;SDS011;40452;50.080;20.040;2023-05-29T03:56:00;6.78;;;2.03;;
54557;SDS011;40452;50.080;20.040;2023-05-29T03:58:26;5.47;;;2.00;;
54557;SDS011;40452;50.080;20.040;2023-05-29T04:00:52;5.93;;;1.90;;
54557;SDS011;40452;50.080;20.040;2023-05-29T04:03:19;9.77;;;2.17;;
54557;SDS011;40452;50.080;20.040;2023-05-29T04:05:45;4.03;;;1.77;;
54557;SDS011;40452;50.080;20.040;2023-05-29T04:08:10;6.05;;;2.10;;
54557;SDS011;40452;50.080;20.040;2023-05-29T04:10:38;8.02;;;2.22;;
54557;SDS011;40452;50.080;20.040;2023-05-29T04:13:04;3.38;;;2.22;;
54557;SDS011;40452;50.080;20.040;2023-05-29T04:15:31;4.53;;;2.15;;
54557;SDS011;40452;50.080;20.040;2023-05-29T04:17:58;6.53;;;1.70;;
54557;SDS011;40452;50.080;20.040;2023-05-29T04:20:24;4.80;;;2.53;;
54557;SDS011;40452;50.080;20.040;2023-05-29T04:22:50;6.22;;;2.28;;
54557;SDS011;40452;50.080;20.040;2023-05-29T04:25:16;7.40;;;2.10;;
54557;SDS011;40452;50.080;20.040;2023-05-29T04:27:43;5.07;;;2.05;;
54557;SDS011;40452;50.080;20.040;2023-05-29T04:30:13;6.43;;;2.40;;
54557;SDS011;40452;50.080;20.040;2023-05-29T04:32:39;4.07;;;2.20;;
54557;SDS011;40452;50.080;20.040;2023-05-29T04:35:05;4.13;;;2.25;;
54557;SDS011;40452;50.080;20.040;2023-05-29T04:37:32;6.63;;;2.17;;
54557;SDS011;40452;50.080;20.040;2023-05-29T04:40:03;7.00;;;2.03;;
54557;SDS011;40452;50.080;20.040;2023-05-29T04:42:34;5.55;;;2.15;;
54557;SDS011;40452;50.080;20.040;2023-05-29T04:45:01;5.15;;;2.10;;
54557;SDS011;40452;50.080;20.040;2023-05-29T04:47:27;8.45;;;2.60;;
54557;SDS011;40452;50.080;20.040;2023-05-29T04:49:53;12.85;;;2.47;;
54557;SDS011;40452;50.080;20.040;2023-05-29T04:52:19;9.43;;;2.53;;
54557;SDS011;40452;50.080;20.040;2023-05-29T14:27:34;7.97;;;2.85;;
54557;SDS011;40452;50.080;20.040;2023-05-29T14:29:59;7.07;;;3.10;;
54557;SDS011;40452;50.080;20.040;2023-05-29T14:32:25;9.98;;;3.45;;
54557;SDS011;40452;50.080;20.040;2023-05-29T14:34:50;7.63;;;2.88;;
54557;SDS011;40452;50.080;20.040;2023-05-29T14:37:17;8.07;;;2.70;;
54557;SDS011;40452;50.080;20.040;2023-05-29T14:39:43;4.95;;;2.72;;
54557;SDS011;40452;50.080;20.040;2023-05-29T14:42:08;6.57;;;2.92;;
54557;SDS011;40452;50.080;20.040;2023-05-29T14:44:34;4.10;;;2.55;;
54557;SDS011;40452;50.080;20.040;2023-05-29T14:47:00;13.40;;;3.38;;
54557;SDS011;40452;50.080;20.040;2023-05-29T14:49:26;4.90;;;2.65;;
54557;SDS011;40452;50.080;20.040;2023-05-29T14:51:56;4.97;;;2.67;;
54557;SDS011;40452;50.080;20.040;2023-05-29T14:54:22;6.88;;;2.90;;
54557;SDS011;40452;50.080;20.040;2023-05-29T14:56:48;5.57;;;2.53;;
54557;SDS011;40452;50.080;20.040;2023-05-29T14:59:15;7.07;;;2.60;;
54557;SDS011;40452;50.080;20.040;2023-05-29T15:01:40;5.40;;;2.60;;
54557;SDS011;40452;50.080;20.040;2023-05-29T15:04:06;6.40;;;2.60;;
54557;SDS011;40452;50.080;20.040;2023-05-29T15:06:32;5.40;;;2.78;;
54557;SDS011;40452;50.080;20.040;2023-05-29T15:08:58;6.03;;;2.72;;
54557;SDS011;40452;50.080;20.040;2023-05-29T15:11:25;6.18;;;2.83;;
54557;SDS011;40452;50.080;20.040;2023-05-29T15:13:53;5.78;;;2.67;;
54557;SDS011;40452;50.080;20.040;2023-05-29T15:16:19;7.60;;;3.17;;
54557;SDS011;40452;50.080;20.040;2023-05-29T15:18:44;5.30;;;2.55;;
54557;SDS011;40452;50.080;20.040;2023-05-29T15:21:10;4.38;;;2.20;;
54557;SDS011;40452;50.080;20.040;2023-05-29T15:23:36;7.15;;;2.70;;
54557;SDS011;40452;50.080;20.040;2023-05-29T15:26:03;4.70;;;2.38;;
54557;SDS011;40452;50.080;20.040;2023-05-29T15:28:30;6.63;;;2.78;;
54557;SDS011;40452;50.080;20.040;2023-05-29T15:30:56;4.78;;;2.60;;
54557;SDS011;40452;50.080;20.040;2023-05-29T15:33:22;5.97;;;2.63;;
54557;SDS011;40452;50.080;20.040;2023-05-29T15:35:47;5.15;;;2.72;;
54557;SDS011;40452;50.080;20.040;2023-05-29T15:38:14;10.27;;;3.10;;
54557;SDS011;40452;50.080;20.040;2023-05-29T15:40:41;8.40;;;2.92;;
54557;SDS011;40452;50.080;20.040;2023-05-29T15:43:07;7.47;;;2.80;;
54557;SDS011;40452;50.080;20.040;2023-05-29T15:45:33;5.72;;;2.58;;
54557;SDS011;40452;50.080;20.040;2023-05-29T15:47:58;5.35;;;2.75;;
54557;SDS011;40452;50.080;20.040;2023-05-29T15:50:24;6.65;;;2.65;;
54557;SDS011;40452;50.080;20.040;2023-05-29T15:52:50;6.00;;;2.90;;
54557;SDS011;40452;50.080;20.040;2023-05-29T15:55:16;3.30;;;2.53;;
54557;SDS011;40452;50.080;20.040;2023-05-29T15:57:42;8.88;;;2.70;;
54557;SDS011;40452;50.080;20.040;2023-05-29T16:00:08;8.02;;;3.10;;
54557;SDS011;40452;50.080;20.040;2023-05-29T16:02:36;6.60;;;2.78;;
54557;SDS011;40452;50.080;20.040;2023-05-29T16:05:05;7.47;;;2.97;;
54557;SDS011;40452;50.080;20.040;2023-05-29T16:07:31;4.47;;;2.88;;
54557;SDS011;40452;50.080;20.040;2023-05-29T16:09:58;4.88;;;3.08;;
54557;SDS011;40452;50.080;20.040;2023-05-29T16:12:25;10.23;;;3.17;;
54557;SDS011;40452;50.080;20.040;2023-05-29T16:14:51;5.55;;;3.13;;
54557;SDS011;40452;50.080;20.040;2023-05-29T16:17:17;6.25;;;2.95;;
54557;SDS011;40452;50.080;20.040;2023-05-29T16:19:42;6.70;;;3.20;;
54557;SDS011;40452;50.080;20.040;2023-05-29T16:22:08;6.95;;;3.20;;
54557;SDS011;40452;50.080;20.040;2023-05-29T16:24:33;6.47;;;3.45;;
54557;SDS011;40452;50.080;20.040;2023-05-29T16:26:59;6.30;;;3.50;;
54557;SDS011;40452;50.080;20.040;2023-05-29T16:29:28;8.77;;;3.50;;
54557;SDS011;40452;50.080;20.040;2023-05-29T16:31:54;8.35;;;3.22;;
54557;SDS011;40452;50.080;20.040;2023-05-29T16:34:19;5.53;;;3.20;;
54557;SDS011;40452;50.080;20.040;2023-05-29T16:36:45;5.07;;;3.30;;
54557;SDS011;40452;50.080;20.040;2023-05-29T16:39:11;7.50;;;3.90;;
54557;SDS011;40452;50.080;20.040;2023-05-29T16:41:36;8.65;;;3.65;;
54557;SDS011;40452;50.080;20.040;2023-05-29T16:44:03;5.38;;;3.55;;
54557;SDS011;40452;50.080;20.040;2023-05-29T16:46:29;6.82;;;3.30;;
54557;SDS011;40452;50.080;20.040;2023-05-29T16:48:56;4.13;;;3.08;;
54557;SDS011;40452;50.080;20.040;2023-05-29T16:51:21;6.50;;;3.70;;
54557;SDS011;40452;50.080;20.040;2023-05-29T16:53:47;6.60;;;3.65;;
54557;SDS011;40452;50.080;20.040;2023-05-29T16:56:13;6.45;;;3.67;;
54557;SDS011;40452;50.080;20.040;2023-05-29T16:58:38;7.55;;;3.60;;
54557;SDS011;40452;50.080;20.040;2023-05-29T17:01:06;6.78;;;3.92;;
54557;SDS011;40452;50.080;20.040;2023-05-29T17:03:32;7.38;;;3.80;;
54557;SDS011;40452;50.080;20.040;2023-05-29T17:05:59;4.75;;;3.67;;
54557;SDS011;40452;50.080;20.040;2023-05-29T17:08:24;5.03;;;3.17;;
54557;SDS011;40452;50.080;20.040;2023-05-29T17:10:50;4.65;;;3.50;;
54557;SDS011;40452;50.080;20.040;2023-05-29T17:13:16;6.05;;;3.50;;
54557;SDS011;40452;50.080;20.040;2023-05-29T17:15:41;4.63;;;3.25;;
54557;SDS011;40452;50.080;20.040;2023-05-29T17:18:08;7.28;;;3.53;;
54557;SDS011;40452;50.080;20.040;2023-05-29T17:20:33;5.47;;;3.40;;
54557;SDS011;40452;50.080;20.040;2023-05-29T17:23:00;5.57;;;3.70;;
54557;SDS011;40452;50.080;20.040;2023-05-29T17:25:26;5.72;;;3.53;;
54557;SDS011;40452;50.080;20.040;2023-05-29T17:27:52;4.65;;;3.25;;
54557;SDS011;40452;50.080;20.040;2023-05-29T17:30:18;5.18;;;3.33;;
54557;SDS011;40452;50.080;20.040;2023-05-29T17:32:44;5.07;;;3.33;;
54557;SDS011;40452;50.080;20.040;2023-05-29T17:35:10;5.72;;;3.53;;
54557;SDS011;40452;50.080;20.040;2023-05-29T17:37:38;6.28;;;3.80;;
54557;SDS011;40452;50.080;20.040;2023-05-29T17:40:04;6.72;;;3.60;;
54557;SDS011;40452;50.080;20.040;2023-05-29T17:42:31;6.75;;;3.40;;
54557;SDS011;40452;50.080;20.040;2023-05-29T17:44:57;6.38;;;3.88;;
54557;SDS011;40452;50.080;20.040;2023-05-29T17:47:23;7.80;;;3.40;;
54557;SDS011;40452;50.080;20.040;2023-05-29T17:49:49;7.15;;;3.15;;
54557;SDS011;40452;50.080;20.040;2023-05-29T17:52:15;13.23;;;3.65;;
54557;SDS011;40452;50.080;20.040;2023-05-29T17:54:40;7.20;;;3.40;;
54557;SDS011;40452;50.080;20.040;2023-05-29T17:57:06;5.18;;;3.40;;
54557;SDS011;40452;50.080;20.040;2023-05-29T17:59:31;5.30;;;3.13;;
54557;SDS011;40452;50.080;20.040;2023-05-29T18:01:58;4.72;;;3.15;;
54557;SDS011;40452;50.080;20.040;2023-05-29T18:04:24;6.55;;;3.30;;
54557;SDS011;40452;50.080;20.040;2023-05-29T18:06:50;8.32;;;3.72;;
54557;SDS011;40452;50.080;20.040;2023-05-29T18:09:15;5.35;;;3.03;;
54557;SDS011;40452;50.080;20.040;2023-05-29T18:11:41;4.13;;;2.90;;
54557;SDS011;40452;50.080;20.040;2023-05-29T18:14:10;4.93;;;3.15;;
54557;SDS011;40452;50.080;20.040;2023-05-29T18:16:36;5.72;;;3.03;;
54557;SDS011;40452;50.080;20.040;2023-05-29T18:19:03;5.65;;;2.92;;
54557;SDS011;40452;50.080;20.040;2023-05-29T18:21:29;5.20;;;3.25;;
54557;SDS011;40452;50.080;20.040;2023-05-29T18:23:55;5.38;;;3.03;;
54557;SDS011;40452;50.080;20.040;2023-05-29T18:26:21;4.70;;;3.15;;
54557;SDS011;40452;50.080;20.040;2023-05-29T18:28:47;4.93;;;2.90;;
54557;SDS011;40452;50.080;20.040;2023-05-29T18:31:15;18.73;;;3.67;;
54557;SDS011;40452;50.080;20.040;2023-05-29T18:33:43;6.90;;;4.25;;
54557;SDS011;40452;50.080;20.040;2023-05-29T18:36:09;7.47;;;4.57;;
54557;SDS011;40452;50.080;20.040;2023-05-29T18:38:36;7.15;;;4.13;;
54557;SDS011;40452;50.080;20.040;2023-05-29T18:41:02;10.60;;;4.80;;
54557;SDS011;40452;50.080;20.040;2023-05-29T18:43:28;8.82;;;4.05;;
54557;SDS011;40452;50.080;20.040;2023-05-29T18:45:54;6.88;;;3.97;;
54557;SDS011;40452;50.080;20.040;2023-05-29T18:48:19;6.88;;;3.83;;
54557;SDS011;40452;50.080;20.040;2023-05-29T18:50:45;11.27;;;5.03;;
54557;SDS011;40452;50.080;20.040;2023-05-29T18:53:11;7.70;;;4.72;;
54557;SDS011;40452;50.080;20.040;2023-05-29T18:55:36;10.00;;;4.30;;
54557;SDS011;40452;50.080;20.040;2023-05-29T18:58:02;8.38;;;4.10;;
54557;SDS011;40452;50.080;20.040;2023-05-29T19:00:28;10.18;;;4.20;;
54557;SDS011;40452;50.080;20.040;2023-05-29T19:02:54;11.55;;;4.60;;
54557;SDS011;40452;50.080;20.040;2023-05-29T19:05:20;9.90;;;4.72;;
54557;SDS011;40452;50.080;20.040;2023-05-29T19:07:47;20.55;;;4.65;;
54557;SDS011;40452;50.080;20.040;2023-05-29T19:10:13;11.55;;;4.78;;
54557;SDS011;40452;50.080;20.040;2023-05-29T19:12:39;8.32;;;4.50;;
54557;SDS011;40452;50.080;20.040;2023-05-29T19:15:05;10.32;;;4.78;;
54557;SDS011;40452;50.080;20.040;2023-05-29T19:17:32;13.30;;;6.82;;
54557;SDS011;40452;50.080;20.040;2023-05-29T19:19:58;15.60;;;4.97;;
54557;SDS011;40452;50.080;20.040;2023-05-29T19:22:24;11.32;;;5.38;;
54557;SDS011;40452;50.080;20.040;2023-05-29T19:24:50;15.52;;;4.80;;
54557;SDS011;40452;50.080;20.040;2023-05-29T19:27:16;9.48;;;4.97;;
54557;SDS011;40452;50.080;20.040;2023-05-29T19:29:41;12.00;;;5.40;;
54557;SDS011;40452;50.080;20.040;2023-05-29T19:32:08;14.63;;;5.20;;
54557;SDS011;40452;50.080;20.040;2023-05-29T19:34:37;14.35;;;5.13;;
54557;SDS011;40452;50.080;20.040;2023-05-29T19:37:04;11.47;;;4.67;;
54557;SDS011;40452;50.080;20.040;2023-05-29T19:39:30;11.60;;;4.68;;
54557;SDS011;40452;50.080;20.040;2023-05-29T19:41:56;16.05;;;5.53;;
54557;SDS011;40452;50.080;20.040;2023-05-29T19:44:22;10.88;;;4.45;;
54557;SDS011;40452;50.080;20.040;2023-05-29T19:46:47;11.23;;;4.90;;
54557;SDS011;40452;50.080;20.040;2023-05-29T19:49:14;12.20;;;5.20;;
54557;SDS011;40452;50.080;20.040;2023-05-29T19:51:40;10.32;;;4.75;;
54557;SDS011;40452;50.080;20.040;2023-05-29T19:54:06;11.13;;;4.88;;
54557;SDS011;40452;50.080;20.040;2023-05-29T19:56:31;12.27;;;4.65;;
54557;SDS011;40452;50.080;20.040;2023-05-29T19:58:57;12.35;;;4.57;;
54557;SDS011;40452;50.080;20.040;2023-05-29T20:01:23;8.43;;;4.55;;
54557;SDS011;40452;50.080;20.040;2023-05-29T20:03:48;11.68;;;4.47;;
54557;SDS011;40452;50.080;20.040;2023-05-29T20:06:14;7.75;;;4.38;;
54557;SDS011;40452;50.080;20.040;2023-05-29T20:08:40;11.95;;;4.43;;
54557;SDS011;40452;50.080;20.040;2023-05-29T20:11:06;8.68;;;4.40;;
54557;SDS011;40452;50.080;20.040;2023-05-29T20:13:31;9.25;;;4.20;;
54557;SDS011;40452;50.080;20.040;2023-05-29T20:15:57;9.65;;;4.18;;
54557;SDS011;40452;50.080;20.040;2023-05-29T20:18:23;8.18;;;4.20;;
54557;SDS011;40452;50.080;20.040;2023-05-29T20:20:49;12.15;;;4.57;;
54557;SDS011;40452;50.080;20.040;2023-05-29T20:23:15;7.70;;;4.10;;
54557;SDS011;40452;50.080;20.040;2023-05-29T20:25:41;7.85;;;4.47;;
54557;SDS011;40452;50.080;20.040;2023-05-29T20:28:07;8.07;;;4.57;;
54557;SDS011;40452;50.080;20.040;2023-05-29T20:30:33;7.93;;;4.22;;
54557;SDS011;40452;50.080;20.040;2023-05-29T20:32:59;13.77;;;4.97;;
54557;SDS011;40452;50.080;20.040;2023-05-29T20:35:25;11.25;;;4.70;;
54557;SDS011;40452;50.080;20.040;2023-05-29T20:37:51;6.40;;;4.22;;
54557;SDS011;40452;50.080;20.040;2023-05-29T20:40:19;8.32;;;4.82;;
54557;SDS011;40452;50.080;20.040;2023-05-29T20:42:49;8.10;;;4.30;;
54557;SDS011;40452;50.080;20.040;2023-05-29T20:45:14;8.32;;;4.80;;
54557;SDS011;40452;50.080;20.040;2023-05-29T20:47:43;9.52;;;4.53;;
54557;SDS011;40452;50.080;20.040;2023-05-29T20:50:09;9.20;;;4.78;;
54557;SDS011;40452;50.080;20.040;2023-05-29T20:52:36;7.97;;;4.72;;
54557;SDS011;40452;50.080;20.040;2023-05-29T20:55:02;11.38;;;4.97;;
54557;SDS011;40452;50.080;20.040;2023-05-29T20:57:29;8.13;;;4.40;;
